• Join FlightAware (Why Join?)
  • Login
  • US Flag 
09:34AM EST


 

Airport Tracker/Info


-or-


 

Live Flight TrackerFlight Track Log ✈ SKQ45 ✈ 17-Apr-2013 ✈ KOSU - KBUY

Flight Track Log - Related Links

Times and Time Zones

All times are in EDT time to prevent confusion due to time zone crossing. See the SKQ45 flight status page for this flight to view local times or setup timezone preferences in your user account.

Time Position Orientation Groundspeed Altitude Reporting Facility
EDT Latitude Longitude Course Direction KTS MPH feet Rate Location/Type
02:41AM 40.0219 -83.1167 193° South 156 180 3,500  Level Indianapolis Center
02:42AM 39.9797 -83.0925 156° South 171 197 5,100 1,320 Climbing Indianapolis Center
02:43AM 39.9425 -83.0536 141° Southeast 180 207 6,400 1,140 Climbing Indianapolis Center
02:44AM 39.8981 -83.0136 145° Southeast 191 220 7,600 1,320 Climbing Indianapolis Center
02:45AM 39.8553 -82.9694 142° Southeast 193 222 9,100 1,440 Climbing Indianapolis Center
02:46AM 39.8119 -82.9283 144° Southeast 190 219 10,600 1,320 Climbing Indianapolis Center
02:47AM 39.7678 -82.8842 142° Southeast 197 227 11,800 1,260 Climbing Indianapolis Center
02:48AM 39.7219 -82.8397 143° Southeast 203 234 13,200 1,500 Climbing Indianapolis Center
02:49AM 39.6767 -82.7942 142° Southeast 203 234 14,800 1,380 Climbing Indianapolis Center
02:50AM 39.6286 -82.7486 144° Southeast 211 243 16,000 1,200 Climbing Indianapolis Center
02:51AM 39.5794 -82.7008 143° Southeast 218 251 17,300 1,020 Climbing Indianapolis Center
02:52AM 39.5289 -82.6514 143° Southeast 225 259 18,100 780 Climbing Indianapolis Center
02:53AM 39.4781 -82.6025 143° Southeast 225 259 18,900 420 Climbing Indianapolis Center
02:54AM 39.4197 -82.5456 143° Southeast 257 296 19,000  Climbing Indianapolis Center
02:55AM 39.3567 -82.4856 144° Southeast 275 316 19,000  Level Indianapolis Center
02:56AM 39.2903 -82.4219 143° Southeast 287 330 19,000  Level Indianapolis Center
02:57AM 39.2261 -82.3600 143° Southeast 288 331 19,000  Level Indianapolis Center
02:58AM 39.1625 -82.2986 143° Southeast 287 330 19,000  Level Indianapolis Center
02:59AM 39.0986 -82.2378 144° Southeast 287 330 19,000  Level Indianapolis Center
03:00AM 39.0353 -82.1772 143° Southeast 286 329 19,000  Level Indianapolis Center
03:01AM 38.9719 -82.1172 144° Southeast 283 326 19,000  Level Indianapolis Center
03:02AM 38.9081 -82.0553 143° Southeast 287 330 19,000  Level Indianapolis Center
03:03AM 38.8436 -81.9947 144° Southeast 289 333 19,000  Level Indianapolis Center
03:04AM 38.7789 -81.9339 144° Southeast 289 333 19,000  Level Indianapolis Center
03:05AM 38.7147 -81.8733 144° Southeast 289 333 19,000  Level Indianapolis Center
03:06AM 38.6508 -81.8142 144° Southeast 287 330 19,000  Level Indianapolis Center
03:07AM 38.5861 -81.7536 144° Southeast 290 334 19,000  Level Indianapolis Center
03:08AM 38.5219 -81.6933 144° Southeast 290 334 19,000  Level Indianapolis Center
03:09AM 38.4572 -81.6319 143° Southeast 292 336 19,000  Level Indianapolis Center
03:10AM 38.3917 -81.5717 144° Southeast 292 336 19,000  Level Indianapolis Center
03:11AM 38.3264 -81.5111 144° Southeast 289 333 19,100  Climbing Indianapolis Center
03:12AM 38.2742 -81.4325 130° Southeast 295 339 19,000 -60 Descending Indianapolis Center
03:13AM 38.2294 -81.3489 124° Southeast 290 334 19,000  Level Indianapolis Center
03:14AM 38.1847 -81.2625 123° Southeast 292 336 19,000  Level Indianapolis Center
03:15AM 38.1403 -81.1756 123° Southeast 295 339 19,000  Level Indianapolis Center
03:16AM 38.0956 -81.0911 124° Southeast 289 333 19,000  Level Indianapolis Center
03:17AM 38.0506 -81.0058 124° Southeast 291 335 19,000  Level Indianapolis Center
03:18AM 38.0069 -80.9208 123° Southeast 289 333 19,000  Level Indianapolis Center
03:19AM 37.9631 -80.8361 123° Southeast 287 330 19,000  Level Indianapolis Center
03:20AM 37.9125 -80.7603 130° Southeast 283 326 19,000  Level Indianapolis Center
03:21AM 37.8408 -80.7178 155° Southeast 284 327 19,000  Level Indianapolis Center
03:22AM 37.7667 -80.6656 151° Southeast 282 325 19,000  Level Indianapolis Center
03:23AM 37.6992 -80.6183 151° Southeast 283 326 19,000  Level Indianapolis Center
03:24AM 37.6331 -80.5717 151° Southeast 282 325 19,000  Level Indianapolis Center
03:25AM 37.5672 -80.5239 150° Southeast 281 323 19,000  Level Indianapolis Center
03:26AM 37.5014 -80.4783 151° Southeast 279 321 19,000 -120 Level Indianapolis Center
03:27AM 37.4214 -80.4219 151° Southeast 281 323 18,800 -540 Descending Indianapolis Center
03:28AM 37.3478 -80.3728 152° Southeast 282 325 17,900 -660 Descending Washington Center
03:29AM 37.2747 -80.3239 152° Southeast 293 337 17,500 -660 Descending Washington Center
03:30AM 37.1936 -80.2667 151° Southeast 298 343 16,600 -900 Descending Washington Center
03:31AM 37.1203 -80.2153 151° Southeast 303 349 15,800 -840 Descending Washington Center
03:32AM 37.0472 -80.1642 151° Southeast 298 343 15,000 -780 Descending Washington Center
03:33AM 36.9822 -80.1186 151° Southeast 298 343 14,300 -720 Descending Washington Center
03:35AM 36.8843 -80.0548 149° Southeast  Level FlightAware Approximate
03:42AM 36.4610 -79.7564 150° Southeast  Level FlightAware Approximate
03:43AM 36.4001 -79.7122 150° Southeast  Level FlightAware Approximate
03:44AM 36.3396 -79.6671 149° Southeast  Level FlightAware Approximate
03:45AM 36.2792 -79.6219 149° Southeast  Level FlightAware Approximate
03:46AM 36.2155 -79.5893 154° Southeast  Level FlightAware Approximate
03:47AM 36.1520 -79.5512 154° Southeast  Level FlightAware Approximate
03:48AM 36.0916 -79.5062 149° Southeast  Level FlightAware Approximate
03:49AM 36.0485 -79.4749 152° Southeast  Level Estimated
03:50AM 36.0485 -79.4749 152° Southeast  Level Estimated